Time;durP1;ratioP1;P1;durP2;ratioP2;P2;SDS_P1;SDS_P2;PMS_P1;PMS_P2;Temp;Humidity;BMP_temperature;BMP_pressure;BME280_temperature;BME280_humidity;BME280_pressure;Samples;Min_cycle;Max_cycle;Signal;HPM_P1;HPM_P2
2023/03/01 00:01:46;;;;;;;9.98;5.80;;;;;;;-148.88;73.89;78445.09;5043315;28;20032;-83
2023/03/01 00:04:12;;;;;;;11.35;5.75;;;;;;;-148.88;74.71;78443.06;5045908;28;20025;-83
2023/03/01 00:06:39;;;;;;;12.45;6.00;;;;;;;-148.88;73.82;78463.38;5046109;28;20029;-83
2023/03/01 00:09:05;;;;;;;11.13;6.18;;;;;;;-148.88;74.46;78449.16;5064968;28;20498;-84
2023/03/01 00:11:33;;;;;;;8.98;4.57;;;;;;;-148.88;74.91;78469.50;5047610;28;20020;-83
2023/03/01 00:14:00;;;;;;;9.77;5.07;;;;;;;-148.88;75.10;78459.31;5065522;28;20028;-83
2023/03/01 00:16:33;;;;;;;10.05;5.22;;;;;;;-148.88;74.16;78467.47;5041723;28;20053;-83
2023/03/01 00:18:59;;;;;;;12.07;5.47;;;;;;;-148.88;74.93;78463.38;5041224;28;20043;-81
2023/03/01 00:21:27;;;;;;;8.65;4.93;;;;;;;-148.88;74.14;78463.38;5041044;28;20466;-83
2023/03/01 00:23:53;;;;;;;9.07;4.88;;;;;;;-148.88;75.16;78475.59;5040943;28;20537;-81
2023/03/01 00:26:21;;;;;;;11.35;5.13;;;;;;;-148.88;74.75;78459.31;5058331;28;20024;-83
2023/03/01 00:28:47;;;;;;;12.68;5.85;;;;;;;-148.88;76.05;78467.47;5039432;28;20027;-83
2023/03/01 00:31:15;;;;;;;10.43;5.70;;;;;;;-148.88;75.78;78479.66;5039327;28;20088;-83
2023/03/01 00:33:41;;;;;;;8.55;5.55;;;;;;;-148.88;75.09;78479.66;5056868;28;20031;-82
2023/03/01 00:36:07;;;;;;;11.88;5.63;;;;;;;-148.88;75.83;78508.09;5056699;28;20029;-82
2023/03/01 00:38:40;;;;;;;11.13;5.57;;;;;;;-148.88;76.54;78520.31;5056941;28;20063;-82
2023/03/01 00:41:06;;;;;;;10.15;5.63;;;;;;;-148.88;76.85;78518.28;5038692;28;20040;-83
2023/03/01 00:43:36;;;;;;;10.52;5.88;;;;;;;-148.88;77.80;78536.56;5038440;28;20032;-82
2023/03/01 00:46:08;;;;;;;10.43;5.38;;;;;;;-148.88;78.77;78554.84;5056623;28;20036;-82
2023/03/01 00:48:36;;;;;;;10.60;6.00;;;;;;;-148.88;78.32;78540.63;5038294;28;20025;-82
2023/03/01 00:51:10;;;;;;;12.88;6.40;;;;;;;-148.88;77.92;78536.56;5055801;28;20078;-83
2023/03/01 00:53:36;;;;;;;;;;;;;;;-148.88;76.79;78516.25;5056336;28;20017;-82
2023/03/01 00:56:02;;;;;;;11.88;5.32;;;;;;;-148.88;76.92;78512.19;5056587;28;20278;-82
2023/03/01 00:58:28;;;;;;;9.43;4.88;;;;;;;-148.88;76.53;78512.19;5055809;28;20032;-82
2023/03/01 01:00:53;;;;;;;11.27;5.63;;;;;;;-148.88;75.86;78526.41;5056240;28;20021;-83
2023/03/01 01:03:19;;;;;;;10.13;6.28;;;;;;;-148.88;76.44;78528.44;5056927;28;20083;-82
2023/03/01 01:05:44;;;;;;;13.23;5.78;;;;;;;-148.88;77.13;78520.31;5039559;28;20036;-83
2023/03/01 01:08:10;;;;;;;10.75;5.32;;;;;;;-148.88;76.19;78528.44;5055595;28;20382;-83
2023/03/01 01:10:35;;;;;;;13.93;5.80;;;;;;;-148.88;76.29;78540.63;5037541;28;20107;-83
2023/03/01 01:13:01;;;;;;;10.52;6.13;;;;;;;-148.88;76.82;78548.75;5037903;28;20400;-82
2023/03/01 01:15:26;;;;;;;13.43;6.53;;;;;;;-148.88;77.75;78581.28;5039249;28;20033;-83
2023/03/01 01:17:51;;;;;;;10.52;5.82;;;;;;;-148.88;78.63;78573.16;5037818;28;20044;-83
2023/03/01 01:20:17;;;;;;;12.15;5.78;;;;;;;-148.88;78.78;78558.94;5038883;28;20039;-82
2023/03/01 01:22:46;;;;;;;11.45;5.55;;;;;;;-148.88;78.24;78548.75;5056623;28;20403;-82
2023/03/01 01:25:11;;;;;;;10.75;5.68;;;;;;;-148.88;78.05;78538.59;5056019;28;20407;-82
2023/03/01 01:27:37;;;;;;;12.35;6.07;;;;;;;-148.88;77.83;78552.81;5056011;28;20032;-83
2023/03/01 01:30:03;;;;;;;12.65;6.85;;;;;;;-148.88;78.06;78560.97;5038739;28;20020;-82
2023/03/01 01:32:32;;;;;;;14.63;6.82;;;;;;;-148.88;78.99;78563.00;5056186;28;20028;-83
2023/03/01 01:34:57;;;;;;;12.85;6.72;;;;;;;-148.88;79.21;78556.88;5038133;28;20119;-82
2023/03/01 01:37:22;;;;;;;14.27;7.18;;;;;;;-148.88;78.78;78552.81;5037951;28;20466;-83
2023/03/01 01:39:48;;;;;;;14.40;6.15;;;;;;;-148.88;78.90;78548.75;5055564;28;20036;-83
2023/03/01 01:42:18;;;;;;;13.18;6.72;;;;;;;-148.88;78.33;78528.44;5036669;28;20113;-83
2023/03/01 01:44:46;;;;;;;13.05;6.82;;;;;;;-148.88;78.83;78536.56;5036599;28;20024;-83
2023/03/01 01:47:16;;;;;;;15.07;7.20;;;;;;;-148.88;78.95;78544.69;5036544;28;20577;-82
2023/03/01 01:49:47;;;;;;;18.85;7.32;;;;;;;-148.88;79.17;78552.81;5036648;28;20025;-83
2023/03/01 01:52:20;;;;;;;12.82;6.68;;;;;;;-148.88;78.97;78577.22;5036405;28;20090;-83
2023/03/01 01:54:58;;;;;;;11.20;6.22;;;;;;;-148.88;80.27;78579.25;5054710;28;20017;-83
2023/03/01 01:57:33;;;;;;;13.57;6.22;;;;;;;-148.88;80.10;78593.47;5054511;28;20025;-83
2023/03/01 02:00:02;;;;;;;11.07;6.75;;;;;;;-148.88;82.10;78601.59;5054412;28;20170;-81
2023/03/01 02:02:31;;;;;;;10.95;5.90;;;;;;;-148.88;81.76;78591.44;5054548;28;20024;-83
2023/03/01 02:05:32;;;;;;;15.73;6.70;;;;;;;-148.88;82.01;78601.59;5035971;28;20025;-82
2023/03/01 02:07:59;;;;;;;12.18;5.55;;;;;;;-148.88;82.71;78593.47;5042228;28;20044;-83
2023/03/01 02:10:25;;;;;;;16.10;6.50;;;;;;;-148.88;81.88;78597.53;5054802;28;20025;-83
2023/03/01 02:12:51;;;;;;;15.35;6.63;;;;;;;-148.88;83.30;78601.59;5054750;28;20409;-84
2023/03/01 02:15:17;;;;;;;11.30;5.95;;;;;;;-148.88;83.99;78605.69;5054600;28;20032;-83
2023/03/01 02:17:42;;;;;;;12.95;5.22;;;;;;;-148.88;83.55;78636.16;5036428;28;20025;-83
2023/03/01 02:20:30;;;;;;;13.80;6.72;;;;;;;-148.88;84.83;78638.19;5037118;28;20075;-83
2023/03/01 02:22:56;;;;;;;11.55;6.05;;;;;;;-148.88;84.85;78619.91;5040062;28;20043;-83
2023/03/01 02:25:41;;;;;;;10.38;6.13;;;;;;;-148.88;84.31;78626.00;5054739;28;20021;-83
2023/03/01 02:28:15;;;;;;;14.75;6.07;;;;;;;-148.88;85.09;78638.19;5037449;28;20027;-83
2023/03/01 02:31:41;;;;;;;12.35;6.70;;;;;;;-148.88;85.29;78621.94;5036495;28;20024;-84
2023/03/01 02:33:32;;;;;;;14.52;6.13;;;;;;;-148.88;84.80;78613.81;5053990;28;20159;-82
2023/03/01 02:36:03;;;;;;;12.50;6.03;;;;;;;-148.88;84.22;78626.00;5036332;28;20053;-84
2023/03/01 02:38:28;;;;;;;12.05;6.63;;;;;;;-148.88;84.98;78617.88;5055018;28;20116;-84
2023/03/01 02:40:56;;;;;;;13.98;6.90;;;;;;;-148.88;86.33;78654.47;5054287;28;20423;-83
2023/03/01 02:43:25;;;;;;;15.13;7.22;;;;;;;-148.88;87.46;78650.38;5054431;28;20104;-83
2023/03/01 02:45:52;;;;;;;14.00;7.25;;;;;;;-148.88;85.88;78638.19;5036458;28;20021;-82
2023/03/01 02:48:19;;;;;;;14.18;7.68;;;;;;;-148.88;85.46;78642.25;5036044;28;20033;-84
2023/03/01 02:51:02;;;;;;;15.10;7.20;;;;;;;-148.88;85.58;78648.34;5053420;28;20032;-83
2023/03/01 02:53:48;;;;;;;10.65;6.13;;;;;;;-148.88;86.57;78646.31;5035958;28;20020;-83
2023/03/01 02:56:13;;;;;;;11.77;6.97;;;;;;;-148.88;85.82;78636.16;5053879;28;20103;-82
2023/03/01 02:58:51;;;;;;;15.02;6.68;;;;;;;-148.88;85.76;78628.03;5055489;28;20056;-84
2023/03/01 03:01:20;;;;;;;11.60;6.30;;;;;;;-148.88;84.98;78617.88;5036229;28;20479;-82
2023/03/01 03:03:46;;;;;;;12.27;6.15;;;;;;;-148.88;84.19;78607.72;5036485;28;20029;-83
2023/03/01 03:06:12;;;;;;;12.48;6.45;;;;;;;-148.88;83.10;78615.84;5040251;28;20401;-83
2023/03/01 03:08:37;;;;;;;16.90;6.95;;;;;;;-148.88;83.55;78638.19;5058628;28;20471;-83
2023/03/01 03:11:02;;;;;;;17.02;6.82;;;;;;;-148.88;85.68;78654.47;5040799;28;20032;-83
2023/03/01 03:13:32;;;;;;;13.68;6.70;;;;;;;-148.88;86.23;78646.31;5059084;28;20021;-84
2023/03/01 03:15:57;;;;;;;12.38;6.60;;;;;;;-148.88;86.01;78638.19;5040777;28;20036;-84
2023/03/01 03:18:27;;;;;;;19.20;6.93;;;;;;;-148.88;86.05;78630.06;5058648;28;20025;-82
2023/03/01 03:20:53;;;;;;;14.63;7.47;;;;;;;-148.88;85.62;78634.13;5040416;28;20040;-84
2023/03/01 03:23:20;;;;;;;10.75;5.93;;;;;;;-148.88;84.93;78634.13;5058100;28;20069;-81
2023/03/01 03:25:49;;;;;;;13.88;6.22;;;;;;;-148.88;84.65;78640.22;5038932;28;20505;-83
2023/03/01 03:28:15;;;;;;;12.93;6.18;;;;;;;-148.88;85.45;78648.34;5057320;28;20078;-81
2023/03/01 03:30:41;;;;;;;15.27;6.88;;;;;;;-148.88;85.87;78634.13;5040053;28;20036;-84
2023/03/01 03:33:07;;;;;;;14.73;6.55;;;;;;;-148.88;84.88;78626.00;5057848;28;20031;-82
2023/03/01 03:35:39;;;;;;;14.38;6.80;;;;;;;-148.88;85.49;78636.16;5057643;28;20447;-84
2023/03/01 03:38:09;;;;;;;15.18;6.90;;;;;;;-148.88;88.22;78676.81;5039262;28;20061;-84
2023/03/01 03:40:37;;;;;;;16.90;7.95;;;;;;;-148.88;87.89;78670.72;5040156;28;20498;-82
2023/03/01 03:43:04;;;;;;;14.98;7.25;;;;;;;-148.88;88.01;78668.69;5039615;28;20021;-84
2023/03/01 03:45:32;;;;;;;13.57;6.90;;;;;;;-148.88;89.08;78676.81;5039810;28;20033;-83
2023/03/01 03:48:01;;;;;;;14.88;7.07;;;;;;;-148.88;90.09;78666.66;5039836;28;20028;-83
2023/03/01 03:50:27;;;;;;;17.52;7.78;;;;;;;-148.88;89.28;78658.53;5040347;28;20043;-84
2023/03/01 03:52:52;;;;;;;14.82;7.07;;;;;;;-148.88;89.80;78662.59;5057678;28;20025;-83
2023/03/01 03:55:20;;;;;;;11.05;6.70;;;;;;;-148.88;89.90;78676.81;5057241;28;20021;-84
2023/03/01 03:57:51;;;;;;;14.32;7.45;;;;;;;-148.88;90.08;78693.06;5039644;28;20122;-84
2023/03/01 04:00:21;;;;;;;16.33;7.45;;;;;;;-148.88;90.40;78686.97;5038352;28;20056;-83
2023/03/01 04:02:48;;;;;;;15.23;7.22;;;;;;;-148.88;90.33;78699.19;5038798;28;20509;-84
2023/03/01 04:05:15;;;;;;;18.38;6.95;;;;;;;-148.88;90.80;78711.38;5056719;28;20036;-84
2023/03/01 04:07:45;;;;;;;14.45;6.03;;;;;;;-148.88;90.24;78691.03;5038692;28;20048;-83
2023/03/01 04:10:19;;;;;;;13.40;6.80;;;;;;;-148.88;89.45;78686.97;5057175;28;20027;-85
2023/03/01 04:12:44;;;;;;;12.23;6.38;;;;;;;-148.88;89.87;78668.69;5038754;28;20371;-85
2023/03/01 04:15:14;;;;;;;12.98;6.72;;;;;;;-148.88;88.64;78666.66;5037872;28;20031;-85
2023/03/01 04:17:45;;;;;;;10.98;5.80;;;;;;;-148.88;88.40;78662.59;5037651;28;20020;-84
2023/03/01 04:20:24;;;;;;;13.98;6.93;;;;;;;-148.88;87.84;78652.44;5056461;28;20041;-84
2023/03/01 04:23:20;;;;;;;11.63;6.20;;;;;;;-148.88;87.68;78660.56;5057141;28;20036;-84
2023/03/01 04:25:57;;;;;;;15.57;7.72;;;;;;;-148.88;88.21;78691.03;5021985;28;20043;-85
2023/03/01 04:28:29;;;;;;;16.05;8.15;;;;;;;-148.88;89.55;78699.19;5039315;28;20021;-86
2023/03/01 04:31:12;;;;;;;15.13;8.40;;;;;;;-148.88;89.56;78699.19;5039420;28;20039;-85
2023/03/01 04:33:43;;;;;;;14.48;7.75;;;;;;;-148.88;89.31;78672.75;5039108;28;20450;-83
2023/03/01 04:36:10;;;;;;;11.82;7.10;;;;;;;-148.88;88.67;78654.47;5055875;28;20036;-84
2023/03/01 04:38:37;;;;;;;12.18;6.70;;;;;;;-148.88;86.73;78676.81;5038607;28;20025;-85
2023/03/01 04:41:04;;;;;;;17.90;7.50;;;;;;;-148.88;86.56;78680.88;5038625;28;20412;-84
2023/03/01 04:43:29;;;;;;;13.48;6.72;;;;;;;-148.88;88.07;78703.25;5039179;28;20478;-85
2023/03/01 04:46:03;;;;;;;15.80;9.07;;;;;;;-148.88;90.39;78713.41;5037909;28;20036;-85
2023/03/01 04:48:29;;;;;;;15.90;7.68;;;;;;;-148.88;89.93;78680.88;5037274;28;20040;-85
2023/03/01 04:50:54;;;;;;;17.20;7.88;;;;;;;-148.88;89.21;78670.72;5055613;28;20113;-85
2023/03/01 04:53:19;;;;;;;13.13;7.43;;;;;;;-148.88;88.14;78670.72;5055058;28;20098;-83
2023/03/01 04:55:45;;;;;;;17.52;8.40;;;;;;;-148.88;87.82;78682.91;5054904;28;20490;-85
2023/03/01 04:58:10;;;;;;;13.32;7.00;;;;;;;-148.88;87.45;78680.88;5055214;28;20029;-85
2023/03/01 05:00:35;;;;;;;14.15;7.60;;;;;;;-148.88;86.57;78691.03;5055410;28;20032;-85
2023/03/01 05:03:01;;;;;;;14.25;7.57;;;;;;;-148.88;86.58;78699.19;5037104;28;20104;-84
2023/03/01 05:05:33;;;;;;;14.27;7.05;;;;;;;-148.88;86.03;78711.38;5055138;28;20025;-85
2023/03/01 05:08:00;;;;;;;16.42;7.63;;;;;;;-148.88;86.04;78711.38;5055549;28;20482;-86
2023/03/01 05:10:29;;;;;;;14.10;7.47;;;;;;;-148.88;86.27;78707.31;5036797;28;20036;-85
2023/03/01 05:12:57;;;;;;;13.98;6.80;;;;;;;-148.88;85.92;78713.41;5036767;28;20021;-85
2023/03/01 05:15:25;;;;;;;13.65;7.05;;;;;;;-148.88;86.68;78711.38;5036978;28;20108;-85
2023/03/01 05:17:51;;;;;;;16.58;7.53;;;;;;;-148.88;86.29;78727.63;5037420;28;20033;-86
2023/03/01 05:20:17;;;;;;;15.02;8.02;;;;;;;-148.88;86.65;78715.44;5036791;28;20031;-85
2023/03/01 05:22:45;;;;;;;15.73;7.28;;;;;;;-148.88;87.12;78719.50;5056566;28;20021;-86
2023/03/01 05:25:10;;;;;;;15.65;7.45;;;;;;;-148.88;88.43;78739.84;5055606;28;20061;-84
2023/03/01 05:27:36;;;;;;;17.73;7.25;;;;;;;-148.88;90.07;78723.56;5038441;28;20040;-85
2023/03/01 05:30:13;;;;;;;15.35;7.60;;;;;;;-148.88;89.40;78711.38;5055610;28;20106;-84
2023/03/01 05:32:39;;;;;;;13.07;6.78;;;;;;;-148.88;89.61;78703.25;5055124;28;20017;-84
2023/03/01 05:35:05;;;;;;;19.30;8.20;;;;;;;-148.88;90.53;78711.38;5036528;28;20391;-85
2023/03/01 05:37:30;;;;;;;16.95;8.48;;;;;;;-148.88;90.56;78707.31;5036715;28;20033;-84
2023/03/01 05:39:59;;;;;;;14.68;7.50;;;;;;;-148.88;90.19;78691.03;5054482;28;20031;-85
2023/03/01 05:42:24;;;;;;;14.85;7.20;;;;;;;-148.88;89.78;78707.31;5036546;28;20121;-86
2023/03/01 05:44:49;;;;;;;16.27;7.65;;;;;;;-148.88;89.77;78691.03;5054087;28;20110;-88
2023/03/01 05:47:15;;;;;;;14.52;7.30;;;;;;;-148.88;89.36;78703.25;5053329;28;20483;-86
2023/03/01 05:49:41;;;;;;;18.65;7.70;;;;;;;-148.88;90.68;78723.56;5053600;28;20021;-86
2023/03/01 05:52:07;;;;;;;13.82;7.00;;;;;;;-148.88;90.31;78715.44;5053557;28;20046;-88
2023/03/01 05:54:33;;;;;;;16.20;7.25;;;;;;;-148.88;90.70;78711.38;5053839;28;20118;-87
2023/03/01 05:56:58;;;;;;;14.95;7.63;;;;;;;-148.88;90.09;78686.97;5053616;28;20029;-87
2023/03/01 05:59:23;;;;;;;14.15;7.57;;;;;;;-148.88;89.12;78709.34;5054285;28;20475;-86
2023/03/01 06:01:49;;;;;;;13.23;6.93;;;;;;;-148.88;89.29;78695.13;5054216;28;20025;-88
2023/03/01 06:04:15;;;;;;;16.58;7.55;;;;;;;-148.88;89.82;78695.13;5054686;28;20108;-88
2023/03/01 06:06:40;;;;;;;21.30;8.15;;;;;;;-148.88;90.46;78711.38;5054788;28;20053;-89
2023/03/01 06:09:09;;;;;;;14.07;7.00;;;;;;;-148.88;90.41;78682.91;5055324;28;20485;-92
2023/03/01 06:11:35;;;;;;;15.75;8.27;;;;;;;-148.88;89.93;78676.81;5038771;28;20071;-90
2023/03/01 06:14:03;;;;;;;13.10;7.68;;;;;;;-148.88;90.03;78701.22;5055721;28;20057;-88
2023/03/01 06:18:01;;;;;;;15.82;7.38;;;;;;;-148.88;89.51;78670.72;5122944;27;20365;-80
2023/03/01 06:20:28;;;;;;;16.08;7.90;;;;;;;-148.88;88.90;78691.03;5118291;28;20540;-80
2023/03/01 06:22:53;;;;;;;16.73;8.65;;;;;;;-148.88;89.21;78695.13;5136740;28;20024;-80
2023/03/01 06:25:21;;;;;;;17.10;7.55;;;;;;;-148.88;89.02;78662.59;5120738;28;20129;-80
2023/03/01 06:27:48;;;;;;;15.65;7.47;;;;;;;-148.88;88.36;78658.53;5119477;28;20074;-80
2023/03/01 06:30:15;;;;;;;16.33;8.38;;;;;;;-148.88;88.30;78676.81;5119091;28;20077;-80
2023/03/01 06:32:44;;;;;;;14.43;7.55;;;;;;;-148.88;88.95;78689.00;5119233;28;20476;-80
2023/03/01 06:35:11;;;;;;;15.27;7.72;;;;;;;-148.88;89.94;78699.19;5119424;28;20441;-81
2023/03/01 06:37:36;;;;;;;19.67;8.40;;;;;;;-148.88;89.85;78684.94;5120270;28;20020;-80
2023/03/01 06:40:07;;;;;;;18.02;8.25;;;;;;;-148.88;89.64;78695.13;5119246;28;20534;-80
2023/03/01 06:42:37;;;;;;;15.55;8.32;;;;;;;-148.88;91.66;78713.41;5120932;28;20030;-80
2023/03/01 06:45:05;;;;;;;23.50;7.95;;;;;;;-148.88;91.73;78707.31;5119558;28;20020;-80
2023/03/01 06:47:31;;;;;;;18.98;8.77;;;;;;;-148.88;92.12;78689.00;5120861;28;20088;-78
2023/03/01 06:49:56;;;;;;;17.15;9.13;;;;;;;-148.88;91.34;78676.81;5119847;28;20028;-80
2023/03/01 06:52:22;;;;;;;18.95;9.05;;;;;;;-148.88;90.34;78670.72;5122555;28;20024;-80
2023/03/01 06:54:47;;;;;;;17.00;8.18;;;;;;;-148.88;90.36;78670.72;5120058;28;20085;-80
2023/03/01 06:57:12;;;;;;;18.40;8.65;;;;;;;-148.88;90.84;78662.59;5119562;28;20027;-80
2023/03/01 06:59:38;;;;;;;22.00;9.98;;;;;;;-148.88;91.20;78650.38;5121337;28;20035;-80
2023/03/01 07:02:03;;;;;;;19.10;9.15;;;;;;;-148.88;91.00;78636.16;5119244;28;20036;-80
2023/03/01 07:04:30;;;;;;;18.52;9.10;;;;;;;-148.88;91.17;78638.19;5119855;28;20024;-81
2023/03/01 07:06:55;;;;;;;21.48;8.88;;;;;;;-148.88;91.21;78628.03;5121943;28;20051;-81
2023/03/01 07:09:22;;;;;;;16.73;8.82;;;;;;;-148.88;91.13;78628.03;5121077;28;20020;-80
2023/03/01 07:11:48;;;;;;;18.00;8.80;;;;;;;-148.88;90.97;78648.34;5122824;28;20039;-80
2023/03/01 07:14:14;;;;;;;21.35;9.18;;;;;;;-148.88;91.50;78630.06;5123847;28;20031;-79
2023/03/01 07:16:39;;;;;;;17.77;9.18;;;;;;;-148.88;92.55;78648.34;5122346;28;20036;-79
2023/03/01 07:19:05;;;;;;;18.02;9.63;;;;;;;-148.88;92.82;78650.38;5123376;28;20052;-80
2023/03/01 07:21:31;;;;;;;17.17;8.60;;;;;;;-148.88;93.22;78652.44;5125040;28;20447;-80
2023/03/01 07:23:56;;;;;;;15.98;8.65;;;;;;;-148.88;93.45;78652.44;5122226;28;20415;-80
2023/03/01 07:26:21;;;;;;;19.27;9.77;;;;;;;-148.88;93.39;78638.19;5124041;28;20038;-80
2023/03/01 07:28:47;;;;;;;16.90;9.02;;;;;;;-148.88;93.67;78597.53;5112453;28;20024;-80
2023/03/01 07:31:12;;;;;;;22.98;10.00;;;;;;;-148.88;92.92;78585.34;5106055;28;20027;-80
2023/03/01 07:33:40;;;;;;;16.63;9.70;;;;;;;-148.88;92.63;78571.13;5107410;28;20053;-80
2023/03/01 07:36:06;;;;;;;17.83;9.27;;;;;;;-148.88;92.08;78550.78;5108291;28;20110;-80
2023/03/01 07:38:31;;;;;;;15.82;9.45;;;;;;;-148.88;91.97;78558.94;5109301;28;20032;-80
2023/03/01 07:41:01;;;;;;;17.95;8.70;;;;;;;-148.88;91.77;78558.94;5108802;28;20020;-80
2023/03/01 07:43:30;;;;;;;17.40;8.52;;;;;;;-148.88;92.48;78577.22;5108514;28;20358;-81
2023/03/01 07:46:00;;;;;;;21.40;9.63;;;;;;;-148.88;93.50;78585.34;5106673;28;20060;-81
2023/03/01 07:48:26;;;;;;;17.58;9.38;;;;;;;-148.88;94.47;78609.75;5107674;28;20028;-81
2023/03/01 07:50:51;;;;;;;21.27;10.00;;;;;;;-148.88;95.09;78609.75;5108729;28;20035;-80
2023/03/01 07:53:16;;;;;;;18.02;10.55;;;;;;;-148.88;95.84;78644.28;5108282;28;20491;-80
2023/03/01 07:55:42;;;;;;;17.38;9.02;;;;;;;-148.88;95.94;78626.00;5108960;28;20027;-80
2023/03/01 07:58:07;;;;;;;25.48;11.07;;;;;;;-148.88;96.37;78621.94;5110390;28;20055;-81
2023/03/01 08:00:52;;;;;;;22.15;9.90;;;;;;;-148.88;96.80;78638.19;5109825;28;20043;-81
2023/03/01 08:03:18;;;;;;;22.05;11.25;;;;;;;-148.88;97.27;78646.31;5110027;28;20024;-81
2023/03/01 08:05:43;;;;;;;23.30;10.20;;;;;;;-148.88;97.10;78615.84;5108011;28;20077;-80
2023/03/01 08:08:08;;;;;;;22.20;10.75;;;;;;;-148.88;97.04;78615.84;5106367;28;20049;-81
2023/03/01 08:10:33;;;;;;;21.35;10.30;;;;;;;-148.88;95.91;78607.72;5107294;28;20095;-81
2023/03/01 08:12:59;;;;;;;20.35;10.30;;;;;;;-148.88;96.03;78597.53;5108442;28;20024;-81
2023/03/01 08:15:24;;;;;;;19.38;9.85;;;;;;;-148.88;96.40;78581.28;5108183;28;20027;-81
2023/03/01 08:17:50;;;;;;;18.45;9.75;;;;;;;-148.88;95.95;78548.75;5107213;28;20040;-82
2023/03/01 08:20:16;;;;;;;21.23;9.32;;;;;;;-148.88;95.38;78526.41;5108423;28;20373;-81
2023/03/01 08:22:41;;;;;;;23.10;10.93;;;;;;;-148.88;95.25;78536.56;5106441;28;20023;-82
2023/03/01 08:25:07;;;;;;;18.35;9.15;;;;;;;-148.88;94.33;78483.72;5107636;28;20085;-82
2023/03/01 08:27:32;;;;;;;21.88;10.43;;;;;;;-148.88;93.46;78473.56;5108575;28;20020;-81
2023/03/01 08:29:58;;;;;;;21.23;10.48;;;;;;;-148.88;92.90;78467.47;5109208;28;20053;-81
2023/03/01 08:32:23;;;;;;;21.10;10.05;;;;;;;-148.88;92.57;78441.03;5110223;28;20420;-82
2023/03/01 08:34:48;;;;;;;21.20;10.35;;;;;;;-148.88;91.90;78418.69;5099151;22;20112;-84
2023/03/01 08:37:14;;;;;;;19.52;9.55;;;;;;;-148.88;91.57;78418.69;5061289;28;20047;-84
2023/03/01 08:39:39;;;;;;;20.00;10.02;;;;;;;-148.88;91.37;78398.34;5042502;28;20036;-84
2023/03/01 08:42:04;;;;;;;21.40;9.57;;;;;;;-148.88;90.80;78378.03;5043247;28;20120;-84
2023/03/01 08:44:30;;;;;;;19.17;9.00;;;;;;;-148.88;90.12;78371.94;5061011;28;20105;-84
2023/03/01 08:46:55;;;;;;;17.20;9.70;;;;;;;-148.88;90.87;78369.91;5077102;22;20132;-80
2023/03/01 08:49:21;;;;;;;22.08;10.77;;;;;;;-148.88;91.70;78327.22;5076427;28;20517;-81
2023/03/01 08:51:47;;;;;;;19.38;9.98;;;;;;;-148.88;90.41;78331.28;5075645;28;20111;-80
2023/03/01 08:54:20;;;;;;;21.00;10.77;;;;;;;-148.88;89.08;78333.31;5074656;28;20050;-80
2023/03/01 08:56:46;;;;;;;21.63;9.90;;;;;;;-148.88;88.98;78276.41;5076890;28;20479;-80
2023/03/01 08:59:13;;;;;;;22.63;9.95;;;;;;;-148.88;88.08;78262.16;5075748;28;20379;-79
2023/03/01 09:01:39;;;;;;;20.17;9.88;;;;;;;-148.88;87.14;78241.84;5077325;28;20021;-80
2023/03/01 09:04:05;;;;;;;15.65;9.00;;;;;;;-148.88;85.49;78215.44;5077009;28;20032;-80
2023/03/01 09:06:32;;;;;;;21.60;9.77;;;;;;;-148.88;85.69;78166.66;5076760;28;20389;-79
2023/03/01 09:08:58;;;;;;;16.70;8.88;;;;;;;-148.88;83.87;78138.19;5077264;28;20528;-80
2023/03/01 09:11:24;;;;;;;16.10;8.68;;;;;;;-148.88;80.14;78123.97;5076019;28;20513;-79
2023/03/01 09:13:49;;;;;;;20.42;8.00;;;;;;;-148.88;81.01;78097.53;5072972;28;20032;-79
2023/03/01 09:16:17;;;;;;;14.75;7.65;;;;;;;-148.88;81.01;78032.50;5074833;28;20028;-79
2023/03/01 09:18:43;;;;;;;15.38;7.57;;;;;;;-148.88;80.99;78010.16;5076176;28;20466;-80
2023/03/01 09:21:12;;;;;;;16.13;8.18;;;;;;;-148.88;77.74;77971.53;5075610;28;20029;-80
2023/03/01 09:23:41;;;;;;;16.50;8.55;;;;;;;-148.88;76.06;77922.75;5076905;28;20367;-80
2023/03/01 09:26:08;;;;;;;14.88;6.93;;;;;;;-148.88;70.72;77926.81;5077236;28;20082;-79
2023/03/01 09:28:34;;;;;;;14.52;6.57;;;;;;;-148.88;68.83;77884.16;5076820;28;20024;-80
2023/03/01 09:31:00;;;;;;;20.10;10.00;;;;;;;-148.88;66.25;77849.59;5077301;28;20490;-80
2023/03/01 09:33:27;;;;;;;15.20;9.90;;;;;;;-148.88;67.61;77811.00;5076640;28;20029;-80
2023/03/01 09:35:59;;;;;;;11.88;7.25;;;;;;;-148.88;65.27;77758.16;5076558;28;20025;-80
2023/03/01 09:38:24;;;;;;;14.73;7.80;;;;;;;-148.88;61.42;77729.69;5075222;28;20108;-80
2023/03/01 09:40:50;;;;;;;12.50;6.57;;;;;;;-148.88;62.38;77735.78;5075733;28;20051;-80
2023/03/01 09:43:26;;;;;;;10.93;6.20;;;;;;;-148.88;60.96;77685.00;5075366;28;20570;-80
2023/03/01 09:45:55;;;;;;;11.82;5.70;;;;;;;-148.88;62.16;77646.38;5076610;28;20103;-80
2023/03/01 09:48:26;;;;;;;11.95;5.32;;;;;;;-148.88;59.02;77640.28;5072910;28;20101;-80
2023/03/01 09:50:52;;;;;;;11.20;6.10;;;;;;;-148.88;56.46;77666.69;5072752;28;20067;-80
2023/03/01 09:53:21;;;;;;;12.00;5.30;;;;;;;-148.88;55.05;77630.13;5074714;28;20024;-81
2023/03/01 09:55:58;;;;;;;10.18;5.53;;;;;;;-148.88;54.94;77630.13;5076059;28;20080;-81
2023/03/01 09:58:31;;;;;;;10.52;5.70;;;;;;;-148.88;53.52;77567.13;5075926;28;20024;-81
2023/03/01 10:01:02;;;;;;;11.82;5.95;;;;;;;-148.88;54.63;77617.94;5074348;28;20032;-80
2023/03/01 10:03:42;;;;;;;11.95;5.13;;;;;;;-148.88;53.86;77556.97;5075017;28;20025;-80
2023/03/01 10:06:15;;;;;;;10.88;5.47;;;;;;;-148.88;52.15;77528.50;5076022;28;20494;-80
2023/03/01 10:08:46;;;;;;;9.07;5.22;;;;;;;-148.88;51.58;77540.72;5075743;28;20047;-80
2023/03/01 10:11:25;;;;;;;9.52;4.70;;;;;;;-148.88;51.24;77552.91;5075682;28;20092;-80
2023/03/01 10:14:01;;;;;;;10.35;5.47;;;;;;;-148.88;51.33;77583.38;5075929;28;20021;-80
2023/03/01 10:16:48;;;;;;;9.75;5.50;;;;;;;-148.88;51.80;77520.38;5074128;28;20371;-80
2023/03/01 10:19:30;;;;;;;13.93;8.30;;;;;;;-148.88;50.03;77477.72;5073664;28;20020;-80
2023/03/01 10:22:02;;;;;;;8.70;5.72;;;;;;;-148.88;47.83;77465.53;5074130;28;20454;-80
2023/03/01 10:24:33;;;;;;;9.55;4.82;;;;;;;-148.88;49.92;77500.06;5073624;28;20112;-79
2023/03/01 10:27:07;;;;;;;8.15;4.68;;;;;;;-148.88;48.79;77461.47;5072953;28;20066;-80
2023/03/01 10:29:51;;;;;;;7.95;4.65;;;;;;;-148.88;48.07;77414.72;5073767;28;20028;-80
2023/03/01 10:32:18;;;;;;;10.55;4.38;;;;;;;-148.88;47.22;77453.31;5074392;28;20111;-80
2023/03/01 10:34:43;;;;;;;8.75;4.28;;;;;;;-148.88;47.17;77463.50;5074097;28;20047;-80
2023/03/01 10:37:14;;;;;;;10.50;4.28;;;;;;;-148.88;48.53;77443.16;5075583;28;20025;-80
2023/03/01 10:40:08;;;;;;;7.88;4.13;;;;;;;-148.88;45.84;77469.59;5074470;28;20367;-81
2023/03/01 10:42:37;;;;;;;9.88;4.60;;;;;;;-148.88;47.47;77398.47;5073742;28;20025;-81
2023/03/01 10:45:29;;;;;;;10.30;4.88;;;;;;;-148.88;46.21;77386.28;5073513;28;20024;-81
2023/03/01 10:48:26;;;;;;;8.43;4.35;;;;;;;-148.88;45.75;77406.59;5073961;28;20036;-81
2023/03/01 10:50:57;;;;;;;9.02;4.50;;;;;;;-148.88;46.69;77451.28;5070444;28;20039;-80
2023/03/01 10:53:47;;;;;;;9.02;3.88;;;;;;;-148.88;46.51;77392.38;5073297;28;20394;-81
2023/03/01 10:56:15;;;;;;;8.15;4.57;;;;;;;-148.88;46.15;77433.00;5074715;28;20161;-81
2023/03/01 10:59:21;;;;;;;9.68;4.22;;;;;;;-148.88;45.49;77321.25;5073837;28;20024;-81
2023/03/01 11:02:25;;;;;;;13.02;3.95;;;;;;;-148.88;43.95;77349.69;5072463;28;20020;-81
2023/03/01 11:05:12;;;;;;;7.95;4.47;;;;;;;-148.88;44.61;77363.91;5074373;28;20044;-81
2023/03/01 11:07:49;;;;;;;8.93;4.35;;;;;;;-148.88;42.77;77331.41;5079283;28;20020;-79
2023/03/01 11:10:20;;;;;;;9.25;4.10;;;;;;;-148.88;44.69;77355.78;5077555;28;20023;-81
2023/03/01 11:12:45;;;;;;;9.05;4.63;;;;;;;-148.88;43.96;77357.81;5076961;28;20020;-81
2023/03/01 11:15:23;;;;;;;6.93;4.00;;;;;;;-148.88;44.52;77337.50;5077000;28;20021;-81
2023/03/01 11:17:50;;;;;;;9.05;4.72;;;;;;;-148.88;44.23;77327.34;5078136;28;20036;-81
2023/03/01 11:20:33;;;;;;;10.55;4.65;;;;;;;-148.88;42.97;77329.38;5076521;28;20035;-81